sensor_id;sensor_type;location;lat;lon;timestamp;P1;durP1;ratioP1;P2;durP2;ratioP2
44862;SDS011;30597;49.628;10.850;2023-04-03T00:01:20;2.93;;;2.60;;
44862;SDS011;30597;49.628;10.850;2023-04-03T00:03:45;2.57;;;2.37;;
44862;SDS011;30597;49.628;10.850;2023-04-03T00:06:11;2.33;;;2.00;;
44862;SDS011;30597;49.628;10.850;2023-04-03T00:08:37;2.60;;;2.33;;
44862;SDS011;30597;49.628;10.850;2023-04-03T00:11:04;2.67;;;2.03;;
44862;SDS011;30597;49.628;10.850;2023-04-03T00:13:30;3.17;;;2.30;;
44862;SDS011;30597;49.628;10.850;2023-04-03T00:15:57;2.23;;;1.90;;
44862;SDS011;30597;49.628;10.850;2023-04-03T00:18:23;2.60;;;2.40;;
44862;SDS011;30597;49.628;10.850;2023-04-03T00:20:48;2.23;;;1.80;;
44862;SDS011;30597;49.628;10.850;2023-04-03T00:23:14;1.80;;;1.70;;
44862;SDS011;30597;49.628;10.850;2023-04-03T00:25:40;2.33;;;2.10;;
44862;SDS011;30597;49.628;10.850;2023-04-03T00:28:06;2.17;;;1.93;;
44862;SDS011;30597;49.628;10.850;2023-04-03T00:30:32;2.23;;;2.03;;
44862;SDS011;30597;49.628;10.850;2023-04-03T00:32:58;3.97;;;2.23;;
44862;SDS011;30597;49.628;10.850;2023-04-03T00:35:23;3.20;;;3.00;;
44862;SDS011;30597;49.628;10.850;2023-04-03T00:37:53;2.47;;;2.27;;
44862;SDS011;30597;49.628;10.850;2023-04-03T00:40:21;2.20;;;2.00;;
44862;SDS011;30597;49.628;10.850;2023-04-03T00:42:48;2.57;;;2.10;;
44862;SDS011;30597;49.628;10.850;2023-04-03T00:45:31;2.23;;;1.80;;
44862;SDS011;30597;49.628;10.850;2023-04-03T00:48:00;2.10;;;1.90;;
44862;SDS011;30597;49.628;10.850;2023-04-03T00:50:28;2.50;;;2.23;;
44862;SDS011;30597;49.628;10.850;2023-04-03T00:52:55;2.80;;;2.10;;
44862;SDS011;30597;49.628;10.850;2023-04-03T00:55:22;3.10;;;2.47;;
44862;SDS011;30597;49.628;10.850;2023-04-03T00:57:48;2.07;;;1.87;;
44862;SDS011;30597;49.628;10.850;2023-04-03T01:00:16;2.20;;;2.00;;
44862;SDS011;30597;49.628;10.850;2023-04-03T01:02:45;2.67;;;2.07;;
44862;SDS011;30597;49.628;10.850;2023-04-03T01:05:11;2.30;;;2.10;;
44862;SDS011;30597;49.628;10.850;2023-04-03T01:07:37;2.83;;;2.27;;
44862;SDS011;30597;49.628;10.850;2023-04-03T01:10:05;2.20;;;2.00;;
44862;SDS011;30597;49.628;10.850;2023-04-03T01:12:34;3.10;;;1.83;;
44862;SDS011;30597;49.628;10.850;2023-04-03T01:15:35;1.87;;;1.77;;
44862;SDS011;30597;49.628;10.850;2023-04-03T01:17:59;2.17;;;1.97;;
44862;SDS011;30597;49.628;10.850;2023-04-03T01:25:49;2.00;;;1.87;;
44862;SDS011;30597;49.628;10.850;2023-04-03T01:28:21;1.60;;;1.50;;
44862;SDS011;30597;49.628;10.850;2023-04-03T01:33:45;2.50;;;2.30;;
44862;SDS011;30597;49.628;10.850;2023-04-03T01:36:13;1.70;;;1.60;;
44862;SDS011;30597;49.628;10.850;2023-04-03T01:38:45;2.27;;;2.07;;
44862;SDS011;30597;49.628;10.850;2023-04-03T01:41:11;2.83;;;2.13;;
44862;SDS011;30597;49.628;10.850;2023-04-03T01:43:36;1.90;;;1.77;;
44862;SDS011;30597;49.628;10.850;2023-04-03T01:46:02;1.70;;;1.60;;
44862;SDS011;30597;49.628;10.850;2023-04-03T01:48:28;2.63;;;2.17;;
44862;SDS011;30597;49.628;10.850;2023-04-03T01:50:53;2.53;;;1.90;;
44862;SDS011;30597;49.628;10.850;2023-04-03T01:53:19;2.40;;;1.77;;
44862;SDS011;30597;49.628;10.850;2023-04-03T01:55:44;1.70;;;1.60;;
44862;SDS011;30597;49.628;10.850;2023-04-03T01:58:10;3.50;;;1.67;;
44862;SDS011;30597;49.628;10.850;2023-04-03T02:00:36;1.80;;;1.63;;
44862;SDS011;30597;49.628;10.850;2023-04-03T02:03:02;1.77;;;1.63;;
44862;SDS011;30597;49.628;10.850;2023-04-03T02:05:28;2.03;;;1.87;;
44862;SDS011;30597;49.628;10.850;2023-04-03T02:07:53;2.03;;;1.83;;
44862;SDS011;30597;49.628;10.850;2023-04-03T02:10:19;1.40;;;1.30;;
44862;SDS011;30597;49.628;10.850;2023-04-03T02:12:44;1.63;;;1.53;;
44862;SDS011;30597;49.628;10.850;2023-04-03T02:15:10;2.00;;;1.80;;
44862;SDS011;30597;49.628;10.850;2023-04-03T02:17:36;2.30;;;1.87;;
44862;SDS011;30597;49.628;10.850;2023-04-03T02:20:02;1.70;;;1.60;;
44862;SDS011;30597;49.628;10.850;2023-04-03T02:22:28;2.20;;;1.87;;
44862;SDS011;30597;49.628;10.850;2023-04-03T02:24:54;1.60;;;1.43;;
44862;SDS011;30597;49.628;10.850;2023-04-03T02:27:19;1.73;;;1.63;;
44862;SDS011;30597;49.628;10.850;2023-04-03T02:29:45;1.63;;;1.53;;
44862;SDS011;30597;49.628;10.850;2023-04-03T02:32:10;1.60;;;1.50;;
44862;SDS011;30597;49.628;10.850;2023-04-03T02:34:36;1.70;;;1.57;;
44862;SDS011;30597;49.628;10.850;2023-04-03T02:37:02;1.93;;;1.83;;
44862;SDS011;30597;49.628;10.850;2023-04-03T02:39:27;1.77;;;1.50;;
44862;SDS011;30597;49.628;10.850;2023-04-03T02:41:53;1.40;;;1.30;;
44862;SDS011;30597;49.628;10.850;2023-04-03T02:44:18;1.87;;;1.77;;
44862;SDS011;30597;49.628;10.850;2023-04-03T02:46:44;1.90;;;1.80;;
44862;SDS011;30597;49.628;10.850;2023-04-03T02:49:09;1.53;;;1.33;;
44862;SDS011;30597;49.628;10.850;2023-04-03T02:51:35;2.57;;;1.87;;
44862;SDS011;30597;49.628;10.850;2023-04-03T02:54:00;1.60;;;1.33;;
44862;SDS011;30597;49.628;10.850;2023-04-03T02:56:26;2.40;;;1.90;;
44862;SDS011;30597;49.628;10.850;2023-04-03T02:58:52;2.37;;;1.93;;
44862;SDS011;30597;49.628;10.850;2023-04-03T03:01:17;1.80;;;1.60;;
44862;SDS011;30597;49.628;10.850;2023-04-03T03:03:43;1.53;;;1.43;;
44862;SDS011;30597;49.628;10.850;2023-04-03T03:06:10;3.93;;;1.43;;
44862;SDS011;30597;49.628;10.850;2023-04-03T03:08:38;2.60;;;2.23;;
44862;SDS011;30597;49.628;10.850;2023-04-03T03:11:04;1.73;;;1.40;;
44862;SDS011;30597;49.628;10.850;2023-04-03T03:13:30;1.80;;;1.60;;
44862;SDS011;30597;49.628;10.850;2023-04-03T03:15:56;1.70;;;1.60;;
44862;SDS011;30597;49.628;10.850;2023-04-03T03:18:22;1.57;;;1.40;;
44862;SDS011;30597;49.628;10.850;2023-04-03T03:20:55;1.67;;;1.57;;
44862;SDS011;30597;49.628;10.850;2023-04-03T03:23:22;1.43;;;1.23;;
44862;SDS011;30597;49.628;10.850;2023-04-03T03:25:53;1.50;;;1.40;;
44862;SDS011;30597;49.628;10.850;2023-04-03T03:28:20;1.67;;;1.50;;
44862;SDS011;30597;49.628;10.850;2023-04-03T03:30:45;1.77;;;1.67;;
44862;SDS011;30597;49.628;10.850;2023-04-03T03:33:12;1.70;;;1.60;;
44862;SDS011;30597;49.628;10.850;2023-04-03T03:35:37;1.63;;;1.53;;
44862;SDS011;30597;49.628;10.850;2023-04-03T03:38:03;2.60;;;1.37;;
44862;SDS011;30597;49.628;10.850;2023-04-03T03:40:28;2.20;;;1.20;;
44862;SDS011;30597;49.628;10.850;2023-04-03T03:42:54;1.40;;;1.30;;
44862;SDS011;30597;49.628;10.850;2023-04-03T03:45:19;1.10;;;1.00;;
44862;SDS011;30597;49.628;10.850;2023-04-03T03:47:45;1.77;;;1.67;;
44862;SDS011;30597;49.628;10.850;2023-04-03T03:50:11;1.60;;;1.50;;
44862;SDS011;30597;49.628;10.850;2023-04-03T03:52:36;1.37;;;1.27;;
44862;SDS011;30597;49.628;10.850;2023-04-03T03:55:02;1.30;;;1.20;;
44862;SDS011;30597;49.628;10.850;2023-04-03T03:57:28;1.50;;;1.40;;
44862;SDS011;30597;49.628;10.850;2023-04-03T03:59:53;1.40;;;1.30;;
44862;SDS011;30597;49.628;10.850;2023-04-03T04:02:20;1.47;;;1.37;;
44862;SDS011;30597;49.628;10.850;2023-04-03T04:04:45;1.43;;;1.33;;
44862;SDS011;30597;49.628;10.850;2023-04-03T04:07:11;1.50;;;1.40;;
44862;SDS011;30597;49.628;10.850;2023-04-03T04:09:36;1.87;;;1.77;;
44862;SDS011;30597;49.628;10.850;2023-04-03T04:12:02;1.30;;;1.17;;
44862;SDS011;30597;49.628;10.850;2023-04-03T04:14:28;1.40;;;1.30;;
44862;SDS011;30597;49.628;10.850;2023-04-03T04:16:53;1.30;;;1.20;;
44862;SDS011;30597;49.628;10.850;2023-04-03T04:19:19;2.20;;;1.40;;
44862;SDS011;30597;49.628;10.850;2023-04-03T04:21:44;1.40;;;1.30;;
44862;SDS011;30597;49.628;10.850;2023-04-03T04:24:10;1.40;;;1.20;;
44862;SDS011;30597;49.628;10.850;2023-04-03T04:26:36;1.87;;;1.10;;
44862;SDS011;30597;49.628;10.850;2023-04-03T04:29:01;1.50;;;1.40;;
44862;SDS011;30597;49.628;10.850;2023-04-03T04:31:27;1.67;;;1.27;;
44862;SDS011;30597;49.628;10.850;2023-04-03T04:33:53;2.40;;;1.17;;
44862;SDS011;30597;49.628;10.850;2023-04-03T04:36:18;1.50;;;1.40;;
44862;SDS011;30597;49.628;10.850;2023-04-03T04:38:44;1.73;;;1.30;;
44862;SDS011;30597;49.628;10.850;2023-04-03T04:41:10;1.70;;;1.60;;
44862;SDS011;30597;49.628;10.850;2023-04-03T04:43:36;1.40;;;1.13;;
44862;SDS011;30597;49.628;10.850;2023-04-03T04:48:29;1.57;;;1.20;;
44862;SDS011;30597;49.628;10.850;2023-04-03T04:50:54;2.30;;;1.10;;
44862;SDS011;30597;49.628;10.850;2023-04-03T04:53:20;1.30;;;1.20;;
44862;SDS011;30597;49.628;10.850;2023-04-03T04:55:46;1.50;;;1.40;;
44862;SDS011;30597;49.628;10.850;2023-04-03T04:58:11;1.80;;;1.50;;
44862;SDS011;30597;49.628;10.850;2023-04-03T05:00:37;3.87;;;1.47;;
44862;SDS011;30597;49.628;10.850;2023-04-03T05:03:02;1.77;;;1.40;;
44862;SDS011;30597;49.628;10.850;2023-04-03T05:05:28;1.77;;;1.17;;
44862;SDS011;30597;49.628;10.850;2023-04-03T05:07:53;1.93;;;1.47;;
44862;SDS011;30597;49.628;10.850;2023-04-03T05:10:19;10.83;;;2.63;;
44862;SDS011;30597;49.628;10.850;2023-04-03T05:12:45;8.03;;;2.60;;
44862;SDS011;30597;49.628;10.850;2023-04-03T05:15:11;11.17;;;2.50;;
44862;SDS011;30597;49.628;10.850;2023-04-03T05:17:36;11.40;;;2.80;;
44862;SDS011;30597;49.628;10.850;2023-04-03T05:20:02;5.70;;;2.30;;
44862;SDS011;30597;49.628;10.850;2023-04-03T05:22:29;5.23;;;2.23;;
44862;SDS011;30597;49.628;10.850;2023-04-03T05:24:55;5.07;;;1.80;;
44862;SDS011;30597;49.628;10.850;2023-04-03T05:27:21;7.80;;;1.70;;
44862;SDS011;30597;49.628;10.850;2023-04-03T05:29:48;14.70;;;2.30;;
44862;SDS011;30597;49.628;10.850;2023-04-03T05:32:14;5.30;;;2.40;;
44862;SDS011;30597;49.628;10.850;2023-04-03T05:34:40;9.67;;;1.87;;
44862;SDS011;30597;49.628;10.850;2023-04-03T05:37:06;4.33;;;1.83;;
44862;SDS011;30597;49.628;10.850;2023-04-03T05:39:31;5.30;;;3.47;;
44862;SDS011;30597;49.628;10.850;2023-04-03T05:41:57;13.13;;;2.70;;
44862;SDS011;30597;49.628;10.850;2023-04-03T05:44:23;11.53;;;2.83;;
44862;SDS011;30597;49.628;10.850;2023-04-03T05:46:49;7.00;;;3.13;;
44862;SDS011;30597;49.628;10.850;2023-04-03T05:49:14;11.80;;;2.67;;
44862;SDS011;30597;49.628;10.850;2023-04-03T05:51:40;6.60;;;2.80;;
44862;SDS011;30597;49.628;10.850;2023-04-03T05:54:08;5.13;;;2.73;;
44862;SDS011;30597;49.628;10.850;2023-04-03T05:56:39;5.63;;;3.43;;
44862;SDS011;30597;49.628;10.850;2023-04-03T05:59:04;4.63;;;3.10;;
44862;SDS011;30597;49.628;10.850;2023-04-03T06:01:30;3.97;;;3.23;;
44862;SDS011;30597;49.628;10.850;2023-04-03T06:03:55;4.67;;;3.70;;
44862;SDS011;30597;49.628;10.850;2023-04-03T06:06:23;7.33;;;4.20;;
44862;SDS011;30597;49.628;10.850;2023-04-03T06:08:49;4.10;;;3.50;;
44862;SDS011;30597;49.628;10.850;2023-04-03T06:11:15;4.70;;;3.50;;
44862;SDS011;30597;49.628;10.850;2023-04-03T06:13:41;6.00;;;4.60;;
44862;SDS011;30597;49.628;10.850;2023-04-03T06:16:08;8.03;;;4.47;;
44862;SDS011;30597;49.628;10.850;2023-04-03T06:18:36;6.63;;;4.30;;
44862;SDS011;30597;49.628;10.850;2023-04-03T06:21:02;6.93;;;4.30;;
44862;SDS011;30597;49.628;10.850;2023-04-03T06:23:29;7.27;;;4.30;;
44862;SDS011;30597;49.628;10.850;2023-04-03T06:25:55;9.77;;;5.40;;
44862;SDS011;30597;49.628;10.850;2023-04-03T06:28:20;11.00;;;4.97;;
44862;SDS011;30597;49.628;10.850;2023-04-03T06:30:46;5.20;;;4.70;;
44862;SDS011;30597;49.628;10.850;2023-04-03T06:33:11;5.80;;;4.67;;
44862;SDS011;30597;49.628;10.850;2023-04-03T06:35:37;7.60;;;4.57;;
44862;SDS011;30597;49.628;10.850;2023-04-03T06:38:03;12.27;;;5.30;;
44862;SDS011;30597;49.628;10.850;2023-04-03T06:40:34;9.87;;;6.27;;
44862;SDS011;30597;49.628;10.850;2023-04-03T06:43:00;7.90;;;4.90;;
44862;SDS011;30597;49.628;10.850;2023-04-03T06:45:26;8.43;;;5.40;;
44862;SDS011;30597;49.628;10.850;2023-04-03T06:47:52;5.50;;;5.00;;
44862;SDS011;30597;49.628;10.850;2023-04-03T06:50:18;8.87;;;4.70;;
44862;SDS011;30597;49.628;10.850;2023-04-03T06:52:44;5.53;;;4.57;;
44862;SDS011;30597;49.628;10.850;2023-04-03T06:55:10;5.13;;;4.63;;
44862;SDS011;30597;49.628;10.850;2023-04-03T06:57:36;8.33;;;5.30;;
44862;SDS011;30597;49.628;10.850;2023-04-03T07:00:03;5.67;;;5.10;;
44862;SDS011;30597;49.628;10.850;2023-04-03T07:02:30;11.47;;;5.53;;
44862;SDS011;30597;49.628;10.850;2023-04-03T07:04:56;6.33;;;5.00;;
44862;SDS011;30597;49.628;10.850;2023-04-03T07:07:21;9.23;;;5.90;;
44862;SDS011;30597;49.628;10.850;2023-04-03T07:09:47;8.03;;;5.50;;
44862;SDS011;30597;49.628;10.850;2023-04-03T07:12:13;6.63;;;5.90;;
44862;SDS011;30597;49.628;10.850;2023-04-03T07:14:39;6.90;;;4.97;;
44862;SDS011;30597;49.628;10.850;2023-04-03T07:17:04;9.60;;;5.10;;
44862;SDS011;30597;49.628;10.850;2023-04-03T07:19:30;6.50;;;5.43;;
44862;SDS011;30597;49.628;10.850;2023-04-03T07:21:56;6.23;;;5.07;;
44862;SDS011;30597;49.628;10.850;2023-04-03T07:24:22;5.60;;;5.10;;
44862;SDS011;30597;49.628;10.850;2023-04-03T07:26:50;5.67;;;5.07;;
44862;SDS011;30597;49.628;10.850;2023-04-03T07:29:17;6.43;;;4.97;;
44862;SDS011;30597;49.628;10.850;2023-04-03T07:31:43;6.17;;;4.80;;
44862;SDS011;30597;49.628;10.850;2023-04-03T07:34:09;4.60;;;4.10;;
44862;SDS011;30597;49.628;10.850;2023-04-03T07:36:35;5.77;;;5.30;;
44862;SDS011;30597;49.628;10.850;2023-04-03T07:39:01;5.10;;;4.60;;
44862;SDS011;30597;49.628;10.850;2023-04-03T07:41:27;5.03;;;4.53;;
44862;SDS011;30597;49.628;10.850;2023-04-03T07:43:53;4.33;;;3.97;;
44862;SDS011;30597;49.628;10.850;2023-04-03T07:46:19;4.43;;;4.03;;
44862;SDS011;30597;49.628;10.850;2023-04-03T07:48:45;4.43;;;4.03;;
44862;SDS011;30597;49.628;10.850;2023-04-03T07:51:11;4.80;;;3.70;;
44862;SDS011;30597;49.628;10.850;2023-04-03T07:53:37;3.90;;;3.60;;
44862;SDS011;30597;49.628;10.850;2023-04-03T07:56:03;4.33;;;3.93;;
44862;SDS011;30597;49.628;10.850;2023-04-03T07:58:29;3.57;;;3.27;;
44862;SDS011;30597;49.628;10.850;2023-04-03T08:00:55;5.43;;;4.33;;
44862;SDS011;30597;49.628;10.850;2023-04-03T08:03:21;4.30;;;3.90;;
44862;SDS011;30597;49.628;10.850;2023-04-03T08:05:47;6.63;;;4.37;;
44862;SDS011;30597;49.628;10.850;2023-04-03T08:08:15;4.73;;;3.60;;
44862;SDS011;30597;49.628;10.850;2023-04-03T08:10:42;5.20;;;3.80;;
44862;SDS011;30597;49.628;10.850;2023-04-03T08:13:08;5.00;;;3.90;;
44862;SDS011;30597;49.628;10.850;2023-04-03T08:15:35;4.70;;;4.30;;
44862;SDS011;30597;49.628;10.850;2023-04-03T08:18:01;5.07;;;3.70;;
44862;SDS011;30597;49.628;10.850;2023-04-03T08:20:27;4.20;;;3.80;;
44862;SDS011;30597;49.628;10.850;2023-04-03T08:22:53;4.20;;;3.80;;
44862;SDS011;30597;49.628;10.850;2023-04-03T08:25:19;4.57;;;3.60;;
44862;SDS011;30597;49.628;10.850;2023-04-03T08:27:45;5.17;;;3.83;;
44862;SDS011;30597;49.628;10.850;2023-04-03T08:30:11;5.67;;;3.53;;
44862;SDS011;30597;49.628;10.850;2023-04-03T08:32:37;5.97;;;4.10;;
44862;SDS011;30597;49.628;10.850;2023-04-03T08:35:04;4.20;;;3.50;;
44862;SDS011;30597;49.628;10.850;2023-04-03T08:37:30;4.50;;;3.73;;
44862;SDS011;30597;49.628;10.850;2023-04-03T08:39:55;6.90;;;3.80;;
44862;SDS011;30597;49.628;10.850;2023-04-03T08:48:08;3.80;;;3.50;;
44862;SDS011;30597;49.628;10.850;2023-04-03T08:50:41;3.53;;;3.20;;
44862;SDS011;30597;49.628;10.850;2023-04-03T08:53:17;3.90;;;3.53;;
44862;SDS011;30597;49.628;10.850;2023-04-03T08:55:46;3.73;;;3.30;;
44862;SDS011;30597;49.628;10.850;2023-04-03T08:58:23;3.90;;;3.20;;
44862;SDS011;30597;49.628;10.850;2023-04-03T09:00:53;3.57;;;3.27;;
44862;SDS011;30597;49.628;10.850;2023-04-03T09:03:28;3.87;;;3.30;;
44862;SDS011;30597;49.628;10.850;2023-04-03T09:06:22;5.57;;;3.50;;
44862;SDS011;30597;49.628;10.850;2023-04-03T09:08:50;3.10;;;2.90;;
44862;SDS011;30597;49.628;10.850;2023-04-03T09:13:59;3.60;;;3.20;;
44862;SDS011;30597;49.628;10.850;2023-04-03T09:19:25;3.40;;;3.03;;
44862;SDS011;30597;49.628;10.850;2023-04-03T09:22:17;3.93;;;2.97;;
44862;SDS011;30597;49.628;10.850;2023-04-03T09:24:47;4.00;;;2.93;;
44862;SDS011;30597;49.628;10.850;2023-04-03T09:27:17;3.70;;;3.40;;
44862;SDS011;30597;49.628;10.850;2023-04-03T09:29:43;3.10;;;2.80;;
44862;SDS011;30597;49.628;10.850;2023-04-03T09:32:45;2.83;;;2.57;;
44862;SDS011;30597;49.628;10.850;2023-04-03T09:35:48;3.40;;;3.10;;
44862;SDS011;30597;49.628;10.850;2023-04-03T09:40:37;3.60;;;3.00;;
44862;SDS011;30597;49.628;10.850;2023-04-03T09:45:56;3.73;;;3.20;;
44862;SDS011;30597;49.628;10.850;2023-04-03T09:49:04;4.40;;;3.30;;
44862;SDS011;30597;49.628;10.850;2023-04-03T09:51:30;3.50;;;3.13;;
44862;SDS011;30597;49.628;10.850;2023-04-03T09:53:57;3.50;;;3.00;;
44862;SDS011;30597;49.628;10.850;2023-04-03T09:56:24;3.70;;;3.30;;
44862;SDS011;30597;49.628;10.850;2023-04-03T10:04:03;3.60;;;3.20;;
44862;SDS011;30597;49.628;10.850;2023-04-03T10:06:32;3.30;;;3.00;;
44862;SDS011;30597;49.628;10.850;2023-04-03T10:09:05;4.03;;;3.20;;
44862;SDS011;30597;49.628;10.850;2023-04-03T10:11:57;3.00;;;2.73;;
44862;SDS011;30597;49.628;10.850;2023-04-03T10:14:35;2.97;;;2.67;;
44862;SDS011;30597;49.628;10.850;2023-04-03T10:22:37;3.30;;;2.97;;
44862;SDS011;30597;49.628;10.850;2023-04-03T10:25:13;3.13;;;2.80;;
44862;SDS011;30597;49.628;10.850;2023-04-03T10:27:52;3.50;;;3.20;;
44862;SDS011;30597;49.628;10.850;2023-04-03T10:30:50;3.90;;;3.23;;
44862;SDS011;30597;49.628;10.850;2023-04-03T10:41:47;3.43;;;2.80;;
44862;SDS011;30597;49.628;10.850;2023-04-03T10:47:42;3.53;;;3.23;;
44862;SDS011;30597;49.628;10.850;2023-04-03T10:50:43;3.77;;;3.43;;
44862;SDS011;30597;49.628;10.850;2023-04-03T10:58:45;3.30;;;3.00;;
44862;SDS011;30597;49.628;10.850;2023-04-03T11:01:19;4.00;;;3.23;;
44862;SDS011;30597;49.628;10.850;2023-04-03T11:03:56;3.13;;;2.93;;
44862;SDS011;30597;49.628;10.850;2023-04-03T11:06:24;3.63;;;3.33;;
44862;SDS011;30597;49.628;10.850;2023-04-03T11:08:57;3.90;;;3.23;;
44862;SDS011;30597;49.628;10.850;2023-04-03T11:11:31;3.30;;;3.00;;
44862;SDS011;30597;49.628;10.850;2023-04-03T11:14:15;3.70;;;3.40;;
44862;SDS011;30597;49.628;10.850;2023-04-03T11:20:04;4.00;;;3.10;;
44862;SDS011;30597;49.628;10.850;2023-04-03T11:22:39;3.90;;;3.50;;
44862;SDS011;30597;49.628;10.850;2023-04-03T11:27:43;4.20;;;3.50;;
44862;SDS011;30597;49.628;10.850;2023-04-03T11:30:22;4.30;;;3.97;;
44862;SDS011;30597;49.628;10.850;2023-04-03T11:33:12;4.37;;;3.80;;
44862;SDS011;30597;49.628;10.850;2023-04-03T11:35:44;3.93;;;3.63;;
44862;SDS011;30597;49.628;10.850;2023-04-03T11:38:15;3.57;;;3.23;;
44862;SDS011;30597;49.628;10.850;2023-04-03T11:40:48;4.20;;;3.53;;
44862;SDS011;30597;49.628;10.850;2023-04-03T11:50:56;3.73;;;3.43;;
44862;SDS011;30597;49.628;10.850;2023-04-03T11:53:46;3.17;;;2.83;;
44862;SDS011;30597;49.628;10.850;2023-04-03T12:04:12;3.23;;;2.93;;
44862;SDS011;30597;49.628;10.850;2023-04-03T12:09:22;2.80;;;2.60;;
44862;SDS011;30597;49.628;10.850;2023-04-03T12:11:52;2.90;;;2.63;;
44862;SDS011;30597;49.628;10.850;2023-04-03T12:14:18;3.10;;;2.80;;
44862;SDS011;30597;49.628;10.850;2023-04-03T12:16:49;3.13;;;2.93;;
44862;SDS011;30597;49.628;10.850;2023-04-03T12:29:42;3.30;;;3.00;;
44862;SDS011;30597;49.628;10.850;2023-04-03T12:40:51;3.10;;;2.60;;
44862;SDS011;30597;49.628;10.850;2023-04-03T12:46:18;3.23;;;2.93;;
44862;SDS011;30597;49.628;10.850;2023-04-03T12:51:22;2.87;;;2.60;;
44862;SDS011;30597;49.628;10.850;2023-04-03T12:54:02;3.37;;;3.07;;
44862;SDS011;30597;49.628;10.850;2023-04-03T12:56:37;2.33;;;2.13;;
44862;SDS011;30597;49.628;10.850;2023-04-03T13:01:58;3.00;;;2.70;;
44862;SDS011;30597;49.628;10.850;2023-04-03T13:04:26;2.97;;;2.70;;
44862;SDS011;30597;49.628;10.850;2023-04-03T13:06:53;3.07;;;2.77;;
44862;SDS011;30597;49.628;10.850;2023-04-03T13:11:52;2.57;;;2.37;;
44862;SDS011;30597;49.628;10.850;2023-04-03T13:14:22;2.67;;;2.43;;
44862;SDS011;30597;49.628;10.850;2023-04-03T13:16:58;3.80;;;2.57;;
44862;SDS011;30597;49.628;10.850;2023-04-03T13:19:25;3.23;;;2.53;;
44862;SDS011;30597;49.628;10.850;2023-04-03T13:21:56;2.20;;;2.00;;
44862;SDS011;30597;49.628;10.850;2023-04-03T13:24:27;3.00;;;2.20;;
44862;SDS011;30597;49.628;10.850;2023-04-03T13:26:55;3.70;;;3.40;;
44862;SDS011;30597;49.628;10.850;2023-04-03T13:29:23;3.23;;;2.93;;
44862;SDS011;30597;49.628;10.850;2023-04-03T13:31:53;2.60;;;2.40;;
44862;SDS011;30597;49.628;10.850;2023-04-03T13:34:21;2.50;;;2.30;;
44862;SDS011;30597;49.628;10.850;2023-04-03T13:36:59;2.47;;;2.27;;
44862;SDS011;30597;49.628;10.850;2023-04-03T13:39:27;2.60;;;2.40;;
44862;SDS011;30597;49.628;10.850;2023-04-03T13:41:56;3.00;;;2.73;;
44862;SDS011;30597;49.628;10.850;2023-04-03T13:44:26;2.63;;;2.40;;
44862;SDS011;30597;49.628;10.850;2023-04-03T13:47:16;2.40;;;2.20;;
44862;SDS011;30597;49.628;10.850;2023-04-03T13:53:00;2.57;;;2.10;;
44862;SDS011;30597;49.628;10.850;2023-04-03T13:55:30;2.43;;;2.23;;
44862;SDS011;30597;49.628;10.850;2023-04-03T13:58:01;2.73;;;2.43;;
44862;SDS011;30597;49.628;10.850;2023-04-03T14:00:48;2.23;;;2.03;;
44862;SDS011;30597;49.628;10.850;2023-04-03T14:03:28;3.53;;;1.97;;
44862;SDS011;30597;49.628;10.850;2023-04-03T14:05:56;2.43;;;1.90;;
44862;SDS011;30597;49.628;10.850;2023-04-03T14:08:22;2.80;;;2.00;;
44862;SDS011;30597;49.628;10.850;2023-04-03T14:10:48;1.97;;;1.83;;
44862;SDS011;30597;49.628;10.850;2023-04-03T14:13:16;2.23;;;1.93;;
44862;SDS011;30597;49.628;10.850;2023-04-03T14:15:44;3.13;;;2.40;;
44862;SDS011;30597;49.628;10.850;2023-04-03T14:18:12;2.50;;;2.30;;
44862;SDS011;30597;49.628;10.850;2023-04-03T14:20:39;2.63;;;2.37;;
44862;SDS011;30597;49.628;10.850;2023-04-03T14:23:05;2.57;;;2.30;;
44862;SDS011;30597;49.628;10.850;2023-04-03T14:25:31;2.57;;;2.37;;
44862;SDS011;30597;49.628;10.850;2023-04-03T14:27:57;2.00;;;1.80;;
44862;SDS011;30597;49.628;10.850;2023-04-03T14:30:27;2.63;;;2.23;;
44862;SDS011;30597;49.628;10.850;2023-04-03T14:32:56;2.27;;;2.03;;
44862;SDS011;30597;49.628;10.850;2023-04-03T14:35:22;2.13;;;1.87;;
44862;SDS011;30597;49.628;10.850;2023-04-03T14:37:49;2.10;;;1.90;;
44862;SDS011;30597;49.628;10.850;2023-04-03T14:40:17;2.07;;;1.83;;
44862;SDS011;30597;49.628;10.850;2023-04-03T14:42:48;1.80;;;1.70;;
44862;SDS011;30597;49.628;10.850;2023-04-03T14:45:14;2.40;;;2.20;;
44862;SDS011;30597;49.628;10.850;2023-04-03T14:47:46;2.80;;;1.80;;
44862;SDS011;30597;49.628;10.850;2023-04-03T14:50:17;1.83;;;1.73;;
44862;SDS011;30597;49.628;10.850;2023-04-03T14:52:48;2.40;;;2.20;;
44862;SDS011;30597;49.628;10.850;2023-04-03T14:55:15;2.00;;;1.80;;
44862;SDS011;30597;49.628;10.850;2023-04-03T14:57:42;2.07;;;1.80;;
44862;SDS011;30597;49.628;10.850;2023-04-03T15:00:12;2.23;;;1.87;;
44862;SDS011;30597;49.628;10.850;2023-04-03T15:02:40;2.20;;;2.00;;
44862;SDS011;30597;49.628;10.850;2023-04-03T15:05:07;1.70;;;1.50;;
44862;SDS011;30597;49.628;10.850;2023-04-03T15:07:38;2.13;;;1.93;;
44862;SDS011;30597;49.628;10.850;2023-04-03T15:12:46;2.03;;;1.83;;
44862;SDS011;30597;49.628;10.850;2023-04-03T15:15:13;2.13;;;1.83;;
44862;SDS011;30597;49.628;10.850;2023-04-03T15:17:39;2.00;;;1.73;;
44862;SDS011;30597;49.628;10.850;2023-04-03T15:20:11;1.90;;;1.70;;
44862;SDS011;30597;49.628;10.850;2023-04-03T15:22:42;1.57;;;1.47;;
44862;SDS011;30597;49.628;10.850;2023-04-03T15:25:08;1.80;;;1.70;;
44862;SDS011;30597;49.628;10.850;2023-04-03T15:27:34;1.70;;;1.60;;
44862;SDS011;30597;49.628;10.850;2023-04-03T15:30:01;2.10;;;1.90;;
44862;SDS011;30597;49.628;10.850;2023-04-03T15:32:27;1.97;;;1.87;;
44862;SDS011;30597;49.628;10.850;2023-04-03T15:34:53;2.10;;;1.90;;
44862;SDS011;30597;49.628;10.850;2023-04-03T15:37:19;2.30;;;2.10;;
44862;SDS011;30597;49.628;10.850;2023-04-03T15:39:44;2.87;;;2.00;;
44862;SDS011;30597;49.628;10.850;2023-04-03T15:42:10;2.70;;;2.10;;
44862;SDS011;30597;49.628;10.850;2023-04-03T15:44:37;2.43;;;2.23;;
44862;SDS011;30597;49.628;10.850;2023-04-03T15:47:03;2.20;;;1.90;;
44862;SDS011;30597;49.628;10.850;2023-04-03T15:49:29;2.33;;;2.10;;
44862;SDS011;30597;49.628;10.850;2023-04-03T15:51:57;2.13;;;1.87;;
44862;SDS011;30597;49.628;10.850;2023-04-03T15:54:23;2.63;;;2.20;;
44862;SDS011;30597;49.628;10.850;2023-04-03T15:56:49;2.77;;;2.57;;
44862;SDS011;30597;49.628;10.850;2023-04-03T15:59:15;3.23;;;2.87;;
44862;SDS011;30597;49.628;10.850;2023-04-03T16:01:40;2.90;;;2.60;;
44862;SDS011;30597;49.628;10.850;2023-04-03T16:04:07;2.63;;;2.43;;
44862;SDS011;30597;49.628;10.850;2023-04-03T16:06:35;3.30;;;2.70;;
44862;SDS011;30597;49.628;10.850;2023-04-03T16:09:02;3.50;;;3.10;;
44862;SDS011;30597;49.628;10.850;2023-04-03T16:11:28;3.30;;;3.00;;
44862;SDS011;30597;49.628;10.850;2023-04-03T16:13:54;3.73;;;3.37;;
44862;SDS011;30597;49.628;10.850;2023-04-03T16:16:20;2.90;;;2.70;;
44862;SDS011;30597;49.628;10.850;2023-04-03T16:18:46;2.73;;;2.20;;
44862;SDS011;30597;49.628;10.850;2023-04-03T16:21:13;3.03;;;2.60;;
44862;SDS011;30597;49.628;10.850;2023-04-03T16:23:40;3.63;;;3.33;;
44862;SDS011;30597;49.628;10.850;2023-04-03T16:26:06;3.67;;;2.80;;
44862;SDS011;30597;49.628;10.850;2023-04-03T16:28:32;3.17;;;2.87;;
44862;SDS011;30597;49.628;10.850;2023-04-03T16:30:57;2.80;;;2.50;;
44862;SDS011;30597;49.628;10.850;2023-04-03T16:33:24;3.53;;;3.10;;
44862;SDS011;30597;49.628;10.850;2023-04-03T16:35:50;3.40;;;3.10;;